createdAt,value
2022-09-28T00:01:47.958Z,99182.91
2022-09-28T00:04:14.422Z,99181.31
2022-09-28T00:06:41.322Z,99177.00
2022-09-28T00:09:07.587Z,99174.31
2022-09-28T00:11:33.931Z,99172.66
2022-09-28T00:14:00.251Z,99175.38
2022-09-28T00:16:26.742Z,99168.66
2022-09-28T00:18:53.441Z,99164.34
2022-09-28T00:21:19.815Z,99157.34
2022-09-28T00:23:47.069Z,99151.94
2022-09-28T00:26:13.346Z,99157.63
2022-09-28T00:28:39.674Z,99154.13
2022-09-28T00:31:06.046Z,99152.50
2022-09-28T00:33:32.523Z,99150.09
2022-09-28T00:35:58.945Z,99153.63
2022-09-28T00:38:25.220Z,99155.78
2022-09-28T00:40:51.504Z,99148.78
2022-09-28T00:43:18.511Z,99151.50
2022-09-28T00:45:44.781Z,99149.88
2022-09-28T00:48:11.123Z,99145.59
2022-09-28T00:50:37.463Z,99144.78
2022-09-28T00:53:03.744Z,99143.16
2022-09-28T00:55:30.022Z,99145.06
2022-09-28T00:57:56.363Z,99140.75
2022-09-28T01:00:22.876Z,99141.84
2022-09-28T01:02:49.229Z,99142.97
2022-09-28T01:05:15.689Z,99135.13
2022-09-28T01:07:41.981Z,99138.13
2022-09-28T01:10:08.276Z,99144.34
2022-09-28T01:12:34.597Z,99142.72
2022-09-28T01:15:00.967Z,99142.72
2022-09-28T01:17:27.478Z,99138.72
2022-09-28T01:19:54.173Z,99137.13
2022-09-28T01:22:20.676Z,99139.81
2022-09-28T01:24:46.926Z,99144.41
2022-09-28T01:27:13.375Z,99132.81
2022-09-28T01:29:39.813Z,99136.59
2022-09-28T01:32:06.134Z,99133.38
2022-09-28T01:34:32.626Z,99129.59
2022-09-28T01:36:58.880Z,99129.88
2022-09-28T01:39:25.260Z,99131.50
2022-09-28T01:41:51.776Z,99134.19
2022-09-28T01:44:18.084Z,99135.56
2022-09-28T01:46:44.482Z,99129.38
2022-09-28T01:49:11.131Z,99131.56
2022-09-28T01:51:37.397Z,99130.78
2022-09-28T01:54:03.685Z,99125.34
2022-09-28T01:56:29.932Z,99122.13
2022-09-28T01:58:56.422Z,99128.34
2022-09-28T02:01:22.803Z,99124.84
2022-09-28T02:03:49.097Z,99122.41
2022-09-28T02:06:15.421Z,99117.00
2022-09-28T02:08:41.709Z,99117.00
2022-09-28T02:11:08.001Z,99109.22
2022-09-28T02:13:34.245Z,99109.22
2022-09-28T02:16:02.487Z,99109.22
2022-09-28T02:18:31.646Z,99103.81
2022-09-28T02:20:58.105Z,99104.09
2022-09-28T02:23:24.686Z,99107.59
2022-09-28T02:25:51.046Z,99100.88
2022-09-28T02:28:18.845Z,99095.47
2022-09-28T02:30:45.137Z,99103.28
2022-09-28T02:33:11.512Z,99098.16
2022-09-28T02:35:37.810Z,99098.44
2022-09-28T02:38:04.171Z,99088.75
2022-09-28T02:40:30.649Z,99097.97
2022-09-28T02:42:56.980Z,99087.13
2022-09-28T02:45:23.301Z,99092.56
2022-09-28T02:47:49.625Z,99094.44
2022-09-28T02:50:15.942Z,99100.66
2022-09-28T02:52:42.180Z,99093.66
2022-09-28T02:55:08.492Z,99094.72
2022-09-28T02:57:34.958Z,99092.84
2022-09-28T03:00:01.446Z,99093.13
2022-09-28T03:02:27.795Z,99093.13
2022-09-28T03:04:54.421Z,99090.69
2022-09-28T03:07:20.740Z,99091.78
2022-09-28T03:09:47.311Z,99087.19
2022-09-28T03:12:13.540Z,99084.50
2022-09-28T03:14:40.001Z,99079.38
2022-09-28T03:17:06.432Z,99080.47
2022-09-28T03:19:32.900Z,99075.84
2022-09-28T03:21:59.420Z,99069.66
2022-09-28T03:24:25.780Z,99075.06
2022-09-28T03:26:52.089Z,99072.38
2022-09-28T03:29:18.689Z,99075.34
2022-09-28T03:31:45.195Z,99073.44
2022-09-28T03:34:11.724Z,99061.84
2022-09-28T03:36:38.124Z,99066.44
2022-09-28T03:39:04.424Z,99065.66
2022-09-28T03:41:32.168Z,99060.53
2022-09-28T03:43:58.486Z,99064.03
2022-09-28T03:46:24.782Z,99062.13
2022-09-28T03:48:51.045Z,99060.53
2022-09-28T03:51:17.446Z,99065.13
2022-09-28T03:53:43.770Z,99060.81
2022-09-28T03:56:10.061Z,99059.22
2022-09-28T03:58:36.375Z,99053.81
2022-09-28T04:01:03.805Z,99047.88
2022-09-28T04:03:30.295Z,99046.78
2022-09-28T04:05:56.693Z,99044.69
2022-09-28T04:08:23.072Z,99045.47
2022-09-28T04:10:49.823Z,99050.09
2022-09-28T04:13:16.816Z,99045.75
2022-09-28T04:15:43.218Z,99042.28
2022-09-28T04:18:09.570Z,99040.66
2022-09-28T04:20:35.821Z,99034.44
2022-09-28T04:23:02.217Z,99034.44
2022-09-28T04:25:29.272Z,99041.25
2022-09-28T04:27:55.520Z,99033.91
2022-09-28T04:30:21.845Z,99035.03
2022-09-28T04:32:48.288Z,99036.13
2022-09-28T04:35:14.696Z,99035.31
2022-09-28T04:37:41.077Z,99035.63
2022-09-28T04:40:07.327Z,99038.34
2022-09-28T04:42:33.588Z,99041.34
2022-09-28T04:45:00.024Z,99040.50
2022-09-28T04:47:26.308Z,99043.22
2022-09-28T04:49:52.597Z,99048.91
2022-09-28T04:52:18.906Z,99045.72
2022-09-28T04:54:45.175Z,99044.91
2022-09-28T04:57:11.423Z,99046.78
2022-09-28T04:59:37.784Z,99045.19
2022-09-28T05:02:04.387Z,99061.69
2022-09-28T05:04:30.705Z,99049.81
2022-09-28T05:06:57.030Z,99049.28
2022-09-28T05:09:23.404Z,99063.59
2022-09-28T05:11:50.059Z,99052.28
2022-09-28T05:14:16.444Z,99059.59
2022-09-28T05:16:42.740Z,99056.88
2022-09-28T05:19:09.455Z,99060.97
2022-09-28T05:21:36.356Z,99059.97
2022-09-28T05:24:02.681Z,99062.38
2022-09-28T05:26:28.930Z,99057.25
2022-09-28T05:28:55.420Z,99061.84
2022-09-28T05:31:21.679Z,99060.25
2022-09-28T05:33:48.048Z,99062.13
2022-09-28T05:36:14.342Z,99061.34
2022-09-28T05:38:40.935Z,99053.81
2022-09-28T05:41:07.335Z,99058.41
2022-09-28T05:43:33.697Z,99060.31
2022-09-28T05:45:59.972Z,99056.00
2022-09-28T05:48:26.511Z,99050.59
2022-09-28T05:50:52.779Z,99048.41
2022-09-28T05:53:19.171Z,99046.00
2022-09-28T05:55:45.702Z,99040.59
2022-09-28T05:58:12.198Z,99039.00
2022-09-28T06:00:38.714Z,99035.47
2022-09-28T06:03:08.717Z,99046.28
2022-09-28T06:05:35.578Z,99036.13
2022-09-28T06:08:01.852Z,99034.97
2022-09-28T06:10:28.174Z,99028.75
2022-09-28T06:12:54.473Z,99029.03
2022-09-28T06:15:20.878Z,99031.75
2022-09-28T06:17:47.463Z,99019.34
2022-09-28T06:20:14.067Z,99016.66
2022-09-28T06:22:40.463Z,99020.44
2022-09-28T06:25:06.743Z,99010.72
2022-09-28T06:27:33.289Z,99013.41
2022-09-28T06:29:59.579Z,99006.94
2022-09-28T06:32:25.887Z,98996.44
2022-09-28T06:34:56.162Z,98994.81
2022-09-28T06:37:22.746Z,98997.53
2022-09-28T06:39:49.022Z,98996.72
2022-09-28T06:42:15.526Z,98994.00
2022-09-28T06:44:42.133Z,98993.72
2022-09-28T06:47:08.573Z,98997.00
2022-09-28T06:49:35.091Z,98996.22
2022-09-28T06:52:01.660Z,99001.63
2022-09-28T06:54:28.187Z,99014.03
2022-09-28T06:56:54.536Z,99023.72
2022-09-28T06:59:20.941Z,99013.50
2022-09-28T07:01:47.482Z,99011.06
2022-09-28T07:04:13.991Z,99007.59
2022-09-28T07:06:40.308Z,99006.50
2022-09-28T07:09:28.288Z,98998.69
2022-09-28T07:11:53.141Z,99006.78
2022-09-28T07:14:38.986Z,99006.28
2022-09-28T07:17:13.797Z,99008.69
2022-09-28T07:19:40.654Z,99006.00
2022-09-28T07:22:07.256Z,99002.47
2022-09-28T07:24:33.659Z,99001.66
2022-09-28T07:26:59.975Z,98995.47
2022-09-28T07:29:26.693Z,98998.97
2022-09-28T07:31:53.396Z,98994.66
2022-09-28T07:34:19.701Z,99000.06
2022-09-28T07:36:45.964Z,99001.16
2022-09-28T07:39:12.292Z,99000.34
2022-09-28T07:41:38.537Z,99001.44
2022-09-28T07:44:05.163Z,99003.34
2022-09-28T07:46:31.554Z,99007.97
2022-09-28T07:48:57.859Z,99011.44
2022-09-28T07:51:24.123Z,99014.47
2022-09-28T07:53:50.406Z,99017.16
2022-09-28T07:56:16.847Z,99015.53
2022-09-28T07:58:43.151Z,99011.75
2022-09-28T08:01:09.957Z,99013.66
2022-09-28T08:03:36.511Z,99011.75
2022-09-28T08:06:02.785Z,99016.34
2022-09-28T08:08:29.081Z,99015.03
2022-09-28T08:13:27.356Z,99006.94
2022-09-28T08:15:53.929Z,99016.13
2022-09-28T08:18:20.296Z,99021.22
2022-09-28T08:23:21.804Z,99031.22
2022-09-28T08:25:48.199Z,99028.00
2022-09-28T08:28:15.772Z,99038.03
2022-09-28T08:30:42.192Z,99024.28
2022-09-28T08:33:08.631Z,99026.69
2022-09-28T08:35:34.982Z,99025.63
2022-09-28T08:38:02.482Z,99028.31
2022-09-28T08:40:29.179Z,99041.81
2022-09-28T08:42:55.514Z,99049.59
2022-09-28T08:45:23.171Z,99045.84
2022-09-28T08:47:49.922Z,99042.59
2022-09-28T08:50:16.225Z,99041.50
2022-09-28T08:52:42.814Z,99033.13
2022-09-28T08:55:09.215Z,99025.09
2022-09-28T08:57:35.519Z,99019.16
2022-09-28T09:00:01.886Z,99010.25
2022-09-28T09:02:28.338Z,99013.75
2022-09-28T09:04:55.242Z,99011.34
2022-09-28T09:07:21.718Z,99007.00
2022-09-28T09:09:48.059Z,99009.44
2022-09-28T09:12:15.233Z,99007.53
2022-09-28T09:14:41.490Z,99008.88
2022-09-28T09:17:07.856Z,99010.00
2022-09-28T09:19:34.152Z,99008.34
2022-09-28T09:22:00.454Z,99010.00
2022-09-28T09:24:26.762Z,99002.97
2022-09-28T09:26:53.017Z,99009.44
2022-09-28T09:29:19.272Z,99012.94
2022-09-28T09:31:45.553Z,99015.38
2022-09-28T09:34:12.153Z,99009.44
2022-09-28T09:36:38.486Z,99011.06
2022-09-28T09:39:04.775Z,99013.22
2022-09-28T09:41:31.089Z,99005.13
2022-09-28T09:43:57.708Z,99013.22
2022-09-28T09:46:24.094Z,99011.34
2022-09-28T09:48:50.584Z,99008.66
2022-09-28T09:51:16.885Z,99007.81
2022-09-28T09:53:43.184Z,99002.72
2022-09-28T09:56:09.501Z,98997.03
2022-09-28T09:58:35.804Z,98993.81
2022-09-28T10:01:02.139Z,98994.63
2022-09-28T10:03:28.533Z,98995.72
2022-09-28T10:05:55.260Z,98993.81
2022-09-28T10:08:21.540Z,98995.72
2022-09-28T10:10:47.768Z,98995.72
2022-09-28T10:13:14.072Z,98984.91
2022-09-28T10:15:40.401Z,98996.00
2022-09-28T10:18:06.708Z,98992.50
2022-09-28T10:20:33.161Z,98986.31
2022-09-28T10:22:59.483Z,98989.00
2022-09-28T10:25:25.899Z,99000.63
2022-09-28T10:27:52.154Z,99001.41
2022-09-28T10:30:18.430Z,99001.69
2022-09-28T10:32:44.807Z,99002.50
2022-09-28T10:35:11.575Z,99001.97
2022-09-28T10:37:38.861Z,99004.66
2022-09-28T10:40:05.311Z,99017.09
2022-09-28T10:42:31.790Z,99002.78
2022-09-28T10:44:58.113Z,99004.38
2022-09-28T10:47:24.357Z,99010.59
2022-09-28T10:49:51.409Z,99007.38
2022-09-28T10:52:17.630Z,99000.38
2022-09-28T10:54:43.904Z,98998.47
2022-09-28T10:57:13.363Z,99005.47
2022-09-28T10:59:39.944Z,98992.81
2022-09-28T11:02:06.326Z,98999.59
2022-09-28T11:04:32.646Z,98996.56
2022-09-28T11:09:29.790Z,98994.97
2022-09-28T11:11:57.332Z,98990.66
2022-09-28T11:14:23.824Z,99001.47
2022-09-28T11:16:50.258Z,98994.19
2022-09-28T11:19:16.775Z,98992.28
2022-09-28T11:21:43.155Z,98997.16
2022-09-28T11:24:09.444Z,98993.09
2022-09-28T11:26:35.817Z,98993.38
2022-09-28T11:29:02.193Z,98993.94
2022-09-28T11:31:28.632Z,98983.97
2022-09-28T11:33:54.978Z,98994.47
2022-09-28T11:36:21.424Z,98994.47
2022-09-28T11:38:48.340Z,98988.25
2022-09-28T11:41:15.576Z,98991.78
2022-09-28T11:43:41.849Z,98993.66
2022-09-28T11:46:09.655Z,98993.16
2022-09-28T11:48:36.044Z,98987.47
2022-09-28T11:51:02.355Z,98994.22
2022-09-28T11:53:28.661Z,98991.25
2022-09-28T11:55:54.906Z,98991.84
2022-09-28T11:58:21.265Z,98993.44
2022-09-28T12:00:47.531Z,98997.47
2022-09-28T12:03:13.893Z,99003.13
2022-09-28T12:05:40.323Z,98997.25
2022-09-28T12:08:06.728Z,99005.34
2022-09-28T12:10:33.021Z,99005.03
2022-09-28T12:12:59.829Z,99011.25
2022-09-28T12:15:26.152Z,99002.31
2022-09-28T12:17:52.954Z,99000.44
2022-09-28T12:20:19.400Z,98998.84
2022-09-28T12:22:45.769Z,99000.44
2022-09-28T12:25:12.111Z,98994.53
2022-09-28T12:27:38.399Z,98994.53
2022-09-28T12:30:04.938Z,98995.31
2022-09-28T12:32:31.270Z,98991.84
2022-09-28T12:34:57.558Z,98992.91
2022-09-28T12:37:23.853Z,98987.50
2022-09-28T12:39:58.418Z,98984.03
2022-09-28T12:42:25.060Z,98993.72
2022-09-28T12:44:52.945Z,98993.72
2022-09-28T12:47:22.188Z,98989.16
2022-09-28T12:52:34.996Z,98999.41
2022-09-28T12:55:01.409Z,98998.31
2022-09-28T12:57:27.945Z,98999.41
2022-09-28T12:59:54.298Z,99000.22
2022-09-28T13:02:20.613Z,98995.41
2022-09-28T13:04:47.119Z,99001.59
2022-09-28T13:07:13.433Z,99005.38
2022-09-28T13:09:40.690Z,99005.38
2022-09-28T13:12:07.333Z,99010.78
2022-09-28T13:14:33.930Z,99016.19
2022-09-28T13:17:00.835Z,99010.50
2022-09-28T13:19:27.813Z,99009.19
2022-09-28T13:21:54.251Z,99013.47
2022-09-28T13:24:32.102Z,99011.09
2022-09-28T13:26:59.644Z,99010.28
2022-09-28T13:29:26.039Z,99003.78
2022-09-28T13:31:52.352Z,99011.38
2022-09-28T13:34:18.685Z,99017.06
2022-09-28T13:36:48.176Z,99007.03
2022-09-28T13:39:14.896Z,99017.56
2022-09-28T13:41:41.174Z,99021.34
2022-09-28T13:44:07.540Z,99019.75
2022-09-28T13:46:34.102Z,99018.94
2022-09-28T13:49:00.339Z,99021.13
2022-09-28T13:51:26.577Z,99028.94
2022-09-28T13:53:53.019Z,99018.16
2022-09-28T13:56:19.435Z,99022.75
2022-09-28T13:58:45.931Z,99017.84
2022-09-28T14:01:12.643Z,99021.13
2022-09-28T14:03:38.929Z,99017.34
2022-09-28T14:06:05.233Z,99014.94
2022-09-28T14:08:31.557Z,99013.81
2022-09-28T14:10:57.954Z,99013.03
2022-09-28T14:13:24.613Z,99021.91
2022-09-28T14:15:51.008Z,99010.84
2022-09-28T14:18:17.407Z,99015.75
2022-09-28T14:20:43.935Z,99019.22
2022-09-28T14:23:10.362Z,99021.91
2022-09-28T14:25:37.109Z,99019.22
2022-09-28T14:28:03.424Z,99020.59
2022-09-28T14:30:29.671Z,99024.91
2022-09-28T14:32:55.931Z,99019.50
2022-09-28T14:35:22.357Z,99021.69
2022-09-28T14:37:48.620Z,99024.41
2022-09-28T14:40:14.980Z,99032.28
2022-09-28T14:42:41.361Z,99026.06
2022-09-28T14:45:07.681Z,99032.56
2022-09-28T14:47:34.048Z,99032.84
2022-09-28T14:50:00.271Z,99028.84
2022-09-28T14:52:26.637Z,99035.81
2022-09-28T14:54:53.133Z,99037.44
2022-09-28T14:57:19.755Z,99039.06
2022-09-28T14:59:46.160Z,99038.25
2022-09-28T15:02:12.403Z,99037.69
2022-09-28T15:04:38.702Z,99049.25
2022-09-28T15:07:05.230Z,99051.44
2022-09-28T15:09:31.538Z,99051.69
2022-09-28T15:11:57.881Z,99058.44
2022-09-28T15:14:24.281Z,99063.84
2022-09-28T15:16:50.948Z,99063.09
2022-09-28T15:19:17.285Z,99066.88
2022-09-28T15:21:43.566Z,99062.31
2022-09-28T15:24:09.929Z,99068.22
2022-09-28T15:26:36.231Z,99062.81
2022-09-28T15:29:02.652Z,99057.41
2022-09-28T15:31:29.047Z,99070.91
2022-09-28T15:33:55.479Z,99073.59
2022-09-28T15:36:22.583Z,99079.00
2022-09-28T15:38:48.821Z,99077.41
2022-09-28T15:41:15.093Z,99080.09
2022-09-28T15:43:41.629Z,99084.41
2022-09-28T15:46:08.092Z,99081.19
2022-09-28T15:48:34.540Z,99084.16
2022-09-28T15:51:00.792Z,99083.91
2022-09-28T15:53:27.201Z,99087.38
2022-09-28T15:55:53.517Z,99082.25
2022-09-28T15:58:19.788Z,99093.88
2022-09-28T16:00:46.048Z,99094.97
2022-09-28T16:03:12.524Z,99098.44
2022-09-28T16:05:38.850Z,99102.25
2022-09-28T16:08:05.416Z,99099.03
2022-09-28T16:10:31.705Z,99100.69
2022-09-28T16:12:57.981Z,99105.28
2022-09-28T16:15:24.310Z,99106.09
2022-09-28T16:17:51.692Z,99108.50
2022-09-28T16:20:17.969Z,99098.50
2022-09-28T16:22:44.251Z,99098.50
2022-09-28T16:25:10.522Z,99105.50
2022-09-28T16:27:37.004Z,99113.59
2022-09-28T16:30:03.297Z,99108.19
2022-09-28T16:32:29.552Z,99114.41
2022-09-28T16:34:55.853Z,99119.53
2022-09-28T16:37:22.087Z,99119.81
2022-09-28T16:39:48.507Z,99122.50
2022-09-28T16:42:14.843Z,99119.81
2022-09-28T16:44:41.208Z,99125.22
2022-09-28T16:47:07.712Z,99127.91
2022-09-28T16:49:34.426Z,99129.78
2022-09-28T16:52:00.692Z,99130.88
2022-09-28T16:54:27.019Z,99138.97
2022-09-28T16:56:53.271Z,99144.66
2022-09-28T16:59:19.641Z,99142.50
2022-09-28T17:01:46.042Z,99142.50
2022-09-28T17:04:12.385Z,99142.78
2022-09-28T17:06:38.726Z,99148.16
2022-09-28T17:09:05.156Z,99147.59
2022-09-28T17:11:31.470Z,99150.59
2022-09-28T17:13:57.891Z,99157.06
2022-09-28T17:19:10.606Z,99156.25
2022-09-28T17:21:36.897Z,99157.34
2022-09-28T17:24:03.428Z,99163.53
2022-09-28T17:26:29.796Z,99172.72
2022-09-28T17:28:56.097Z,99167.34
2022-09-28T17:31:22.393Z,99166.53
2022-09-28T17:33:48.713Z,99178.13
2022-09-28T17:36:15.101Z,99164.63
2022-09-28T17:38:41.478Z,99173.00
2022-09-28T17:41:08.250Z,99168.72
2022-09-28T17:43:34.658Z,99176.78
2022-09-28T17:46:01.026Z,99175.97
2022-09-28T17:48:27.734Z,99181.38
2022-09-28T17:50:54.005Z,99184.91
2022-09-28T17:53:20.461Z,99185.16
2022-09-28T17:55:46.753Z,99189.47
2022-09-28T17:58:12.991Z,99186.78
2022-09-28T18:00:39.237Z,99196.78
2022-09-28T18:03:05.666Z,99197.56
2022-09-28T18:05:32.097Z,99202.19
2022-09-28T18:07:58.429Z,99203.28
2022-09-28T18:10:24.682Z,99209.72
2022-09-28T18:12:51.079Z,99210.53
2022-09-28T18:15:17.465Z,99213.25
2022-09-28T18:17:43.797Z,99213.53
2022-09-28T18:20:11.505Z,99211.91
2022-09-28T18:25:21.714Z,99224.31
2022-09-28T18:27:48.185Z,99227.81
2022-09-28T18:30:14.780Z,99232.41
2022-09-28T18:32:41.966Z,99238.88
2022-09-28T18:35:08.499Z,99236.19
2022-09-28T18:37:34.877Z,99232.69
2022-09-28T18:40:01.117Z,99233.50
2022-09-28T18:42:27.443Z,99232.69
2022-09-28T18:44:53.698Z,99236.75
2022-09-28T18:47:20.024Z,99235.66
2022-09-28T18:49:46.925Z,99231.06
2022-09-28T18:52:13.449Z,99240.25
2022-09-28T18:54:39.758Z,99236.75
2022-09-28T18:57:06.058Z,99237.84
2022-09-28T18:59:32.280Z,99237.56
2022-09-28T19:01:58.683Z,99246.75
2022-09-28T19:04:25.218Z,99243.25
2022-09-28T19:06:51.568Z,99240.81
2022-09-28T19:09:17.866Z,99245.38
2022-09-28T19:11:44.193Z,99246.22
2022-09-28T19:14:10.463Z,99247.03
2022-09-28T19:16:36.862Z,99251.59
2022-09-28T19:19:03.168Z,99254.03
2022-09-28T19:21:29.477Z,99250.50
2022-09-28T19:23:56.101Z,99257.28
2022-09-28T19:26:22.327Z,99257.28
2022-09-28T19:28:48.607Z,99263.22
2022-09-28T19:31:14.890Z,99260.50
2022-09-28T19:33:41.193Z,99263.50
2022-09-28T19:36:07.607Z,99265.38
2022-09-28T19:38:35.813Z,99264.28
2022-09-28T19:41:02.204Z,99268.06
2022-09-28T19:43:28.929Z,99266.47
2022-09-28T19:45:55.260Z,99262.94
2022-09-28T19:48:21.557Z,99265.63
2022-09-28T19:50:48.064Z,99259.47
2022-09-28T19:53:14.375Z,99264.03
2022-09-28T19:55:40.755Z,99268.34
2022-09-28T19:58:07.080Z,99275.38
2022-09-28T20:00:33.442Z,99274.56
2022-09-28T20:02:59.818Z,99279.13
2022-09-28T20:05:26.161Z,99279.44
2022-09-28T20:07:52.484Z,99284.81
2022-09-28T20:10:19.713Z,99276.75
2022-09-28T20:12:46.142Z,99284.00
2022-09-28T20:15:12.414Z,99281.31
2022-09-28T20:17:39.176Z,99291.28
2022-09-28T20:20:05.545Z,99285.09
2022-09-28T20:22:31.929Z,99291.28
2022-09-28T20:24:58.565Z,99293.19
2022-09-28T20:27:26.455Z,99296.16
2022-09-28T20:29:53.182Z,99301.56
2022-09-28T20:32:19.833Z,99298.88
2022-09-28T20:34:46.367Z,99300.75
2022-09-28T20:37:12.734Z,99297.25
2022-09-28T20:39:44.091Z,99295.63
2022-09-28T20:42:11.181Z,99302.66
2022-09-28T20:44:38.161Z,99308.03
2022-09-28T20:47:04.774Z,99306.13
2022-09-28T20:49:31.141Z,99306.41
2022-09-28T20:51:57.412Z,99308.31
2022-09-28T20:54:23.722Z,99312.06
2022-09-28T20:56:50.074Z,99307.50
2022-09-28T20:59:16.849Z,99305.06
2022-09-28T21:01:43.197Z,99313.16
2022-09-28T21:04:09.918Z,99317.47
2022-09-28T21:06:36.405Z,99316.69
2022-09-28T21:09:02.725Z,99319.38
2022-09-28T21:11:29.000Z,99322.34
2022-09-28T21:13:55.292Z,99320.47
2022-09-28T21:16:21.561Z,99327.75
2022-09-28T21:18:47.899Z,99331.53
2022-09-28T21:21:14.292Z,99336.94
2022-09-28T21:23:40.529Z,99341.50
2022-09-28T21:26:06.782Z,99344.19
2022-09-28T21:28:33.276Z,99340.72
2022-09-28T21:30:59.713Z,99337.19
2022-09-28T21:33:26.210Z,99343.41
2022-09-28T21:35:52.675Z,99340.72
2022-09-28T21:38:19.072Z,99343.69
2022-09-28T21:40:45.453Z,99349.06
2022-09-28T21:43:11.844Z,99344.47
2022-09-28T21:45:38.132Z,99354.47
2022-09-28T21:48:04.418Z,99360.94
2022-09-28T21:50:30.705Z,99357.44
2022-09-28T21:52:57.246Z,99360.13
2022-09-28T21:55:23.591Z,99364.72
2022-09-28T21:57:49.883Z,99363.63
2022-09-28T22:00:16.198Z,99367.41
2022-09-28T22:02:42.927Z,99370.09
2022-09-28T22:05:09.581Z,99368.78
2022-09-28T22:07:35.902Z,99375.78
2022-09-28T22:10:02.480Z,99375.50
2022-09-28T22:12:28.762Z,99373.06
2022-09-28T22:14:55.095Z,99369.59
2022-09-28T22:17:21.421Z,99376.59
2022-09-28T22:19:47.691Z,99368.78
2022-09-28T22:22:14.101Z,99376.84
2022-09-28T22:24:40.418Z,99376.84
2022-09-28T22:27:06.698Z,99382.50
2022-09-28T22:29:33.000Z,99388.97
2022-09-28T22:31:59.263Z,99387.09
2022-09-28T22:34:25.568Z,99383.59
2022-09-28T22:36:51.862Z,99386.28
2022-09-28T22:39:18.212Z,99384.41
2022-09-28T22:41:44.472Z,99392.50
2022-09-28T22:44:10.743Z,99391.66
2022-09-28T22:46:37.285Z,99397.34
2022-09-28T22:49:03.813Z,99394.63
2022-09-28T22:51:30.163Z,99404.63
2022-09-28T22:53:56.567Z,99399.25
2022-09-28T22:56:22.898Z,99400.56
2022-09-28T22:58:49.150Z,99404.91
2022-09-28T23:01:15.595Z,99397.59
2022-09-28T23:03:42.340Z,99403.00
2022-09-28T23:06:08.634Z,99402.47
2022-09-28T23:08:34.930Z,99399.78
2022-09-28T23:11:01.202Z,99401.66
2022-09-28T23:13:27.710Z,99412.44
2022-09-28T23:15:54.891Z,99396.28
2022-09-28T23:18:21.181Z,99410.56
2022-09-28T23:20:47.463Z,99397.88
2022-09-28T23:23:13.712Z,99400.56
2022-09-28T23:25:39.960Z,99401.66
2022-09-28T23:28:06.454Z,99401.16
2022-09-28T23:30:32.883Z,99404.63
2022-09-28T23:32:59.243Z,99394.16
2022-09-28T23:35:25.603Z,99403.56
2022-09-28T23:37:51.873Z,99399.53
2022-09-28T23:40:18.232Z,99396.84
2022-09-28T23:42:45.460Z,99398.72
2022-09-28T23:45:11.733Z,99405.97
2022-09-28T23:47:38.194Z,99404.38
2022-09-28T23:50:04.454Z,99398.16
2022-09-28T23:52:30.764Z,99403.28
2022-09-28T23:54:57.002Z,99401.69
2022-09-28T23:57:23.313Z,99402.50
2022-09-28T23:59:49.567Z,99400.06
